Time;durP1;ratioP1;P1;durP2;ratioP2;P2;SDS_P1;SDS_P2;PMS_P1;PMS_P2;Temp;Humidity;BMP_temperature;BMP_pressure;BME280_temperature;BME280_humidity;BME280_pressure;Samples;Min_cycle;Max_cycle;Signal;HPM_P1;HPM_P2
2022/05/06 00:01:08;;;;;;;;;;;11.70;1.00;;;;;;5094524;28;19908;-75
2022/05/06 00:03:37;;;;;;;;;;;11.70;1.00;;;;;;5100692;28;19997;-74
2022/05/06 00:06:04;;;;;;;;;;;11.60;1.00;;;;;;5111210;28;19908;-74
2022/05/06 00:08:29;;;;;;;;;;;11.50;1.00;;;;;;5094706;28;19933;-74
2022/05/06 00:10:55;;;;;;;;;;;11.50;1.00;;;;;;5114028;28;20124;-75
2022/05/06 00:13:21;;;;;;;;;;;11.40;1.00;;;;;;5113970;28;19935;-75
2022/05/06 00:15:51;;;;;;;;;;;11.40;1.00;;;;;;5095629;28;20288;-75
2022/05/06 00:18:18;;;;;;;;;;;11.40;1.00;;;;;;5107626;28;19916;-74
2022/05/06 00:20:44;;;;;;;;;;;11.30;1.00;;;;;;5095842;28;19930;-75
2022/05/06 00:23:09;;;;;;;;;;;11.30;1.00;;;;;;5117786;27;19915;-75
2022/05/06 00:25:45;;;;;;;;;;;11.20;1.00;;;;;;5094272;28;19962;-75
2022/05/06 00:28:11;;;;;;;;;;;11.20;1.00;;;;;;5094080;28;19999;-75
2022/05/06 00:30:36;;;;;;;;;;;11.10;1.00;;;;;;5106537;28;19951;-75
2022/05/06 00:33:02;;;;;;;;;;;11.10;1.00;;;;;;5100410;28;19912;-74
2022/05/06 00:35:31;;;;;;;;;;;11.10;1.00;;;;;;5106543;28;19981;-77
2022/05/06 00:40:31;;;;;;;;;;;11.00;1.00;;;;;;5121920;22;19947;-83
2022/05/06 00:42:57;;;;;;;;;;;10.90;1.00;;;;;;5073381;28;20382;-83
2022/05/06 00:45:23;;;;;;;;;;;10.90;1.00;;;;;;5073615;28;19912;-83
2022/05/06 00:47:52;;;;;;;;;;;10.90;1.00;;;;;;5093599;28;20319;-83
2022/05/06 00:50:17;;;;;;;;;;;11.00;1.00;;;;;;5064496;28;19912;-83
2022/05/06 00:52:43;;;;;;;;;;;10.90;1.00;;;;;;5072534;28;19912;-83
2022/05/06 00:55:09;;;;;;;;;;;10.80;1.00;;;;;;5091516;28;20290;-83
2022/05/06 00:57:34;;;;;;;;;;;11.00;1.00;;;;;;5084547;28;20125;-82
2022/05/06 01:00:19;;;;;;;;;;;10.80;1.00;;;;;;5083219;28;19923;-82
2022/05/06 01:02:45;;;;;;;;;;;10.80;1.00;;;;;;5073343;28;19916;-82
2022/05/06 01:05:14;;;;;;;;;;;10.80;1.00;;;;;;5086069;28;19908;-82
2022/05/06 01:07:39;;;;;;;;;;;10.80;1.00;;;;;;5087012;28;20003;-83
2022/05/06 01:10:05;;;;;;;;;;;10.80;1.00;;;;;;5086747;28;19959;-73
2022/05/06 01:12:31;;;;;;;;;;;10.80;1.00;;;;;;5084232;28;20384;-73
2022/05/06 01:14:57;;;;;;;;;;;10.70;1.00;;;;;;5069265;28;19913;-74
2022/05/06 01:17:22;;;;;;;;;;;10.80;1.00;;;;;;5076595;28;19922;-74
2022/05/06 01:19:48;;;;;;;;;;;10.70;1.00;;;;;;5084772;28;19969;-74
2022/05/06 01:22:14;;;;;;;;;;;10.80;1.00;;;;;;5083102;28;19951;-74
2022/05/06 01:24:40;;;;;;;;;;;10.60;1.00;;;;;;5084131;28;20363;-74
2022/05/06 01:27:25;;;;;;;;;;;10.70;1.00;;;;;;5084050;28;19966;-74
2022/05/06 01:29:51;;;;;;;;;;;10.60;1.00;;;;;;5077786;28;19912;-74
2022/05/06 01:32:18;;;;;;;;;;;10.60;1.00;;;;;;5092744;28;19931;-75
2022/05/06 01:34:44;;;;;;;;;;;10.50;1.00;;;;;;5075931;28;19921;-75
2022/05/06 01:37:11;;;;;;;;;;;10.60;1.00;;;;;;5072385;28;20358;-74
2022/05/06 01:39:38;;;;;;;;;;;10.60;1.00;;;;;;5075133;28;19920;-75
2022/05/06 01:42:07;;;;;;;;;;;10.50;1.00;;;;;;5078764;28;19919;-75
2022/05/06 01:44:43;;;;;;;;;;;10.50;1.00;;;;;;5059536;28;19920;-75
2022/05/06 01:47:19;;;;;;;;;;;10.40;1.00;;;;;;5086842;28;19912;-74
2022/05/06 01:49:46;;;;;;;;;;;10.40;1.00;;;;;;5082943;28;19916;-74
2022/05/06 01:52:16;;;;;;;;;;;10.40;1.00;;;;;;5075487;28;19927;-74
2022/05/06 01:54:42;;;;;;;;;;;10.40;1.00;;;;;;5075122;28;19920;-75
2022/05/06 01:57:07;;;;;;;;;;;10.20;1.00;;;;;;5087952;28;19912;-74
2022/05/06 01:59:33;;;;;;;;;;;10.30;1.00;;;;;;5082529;28;20402;-74
2022/05/06 02:01:58;;;;;;;;;;;10.20;1.00;;;;;;5095848;28;19991;-74
2022/05/06 02:07:08;;;;;;;;;;;10.20;1.00;;;;;;5072476;28;19957;-75
2022/05/06 02:09:33;;;;;;;;;;;10.20;1.00;;;;;;5085915;28;19998;-75
2022/05/06 02:11:59;;;;;;;;;;;10.10;1.00;;;;;;5091531;28;19908;-75
2022/05/06 02:14:24;;;;;;;;;;;10.10;1.00;;;;;;5085076;28;19912;-75
2022/05/06 02:16:50;;;;;;;;;;;10.10;1.00;;;;;;5078801;28;20390;-74
2022/05/06 02:19:15;;;;;;;;;;;10.00;1.00;;;;;;5084907;28;19912;-74
2022/05/06 02:21:41;;;;;;;;;;;10.00;1.00;;;;;;5092918;28;20274;-74
2022/05/06 02:24:06;;;;;;;;;;;10.10;1.00;;;;;;5085067;28;19954;-75
2022/05/06 02:26:32;;;;;;;;;;;10.00;1.00;;;;;;5067963;28;19912;-74
2022/05/06 02:28:58;;;;;;;;;;;9.90;1.00;;;;;;5095429;28;20346;-74
2022/05/06 02:34:11;;;;;;;;;;;10.20;1.00;;;;;;5084126;28;19919;-74
2022/05/06 02:36:36;;;;;;;;;;;10.00;1.00;;;;;;5088171;28;20407;-74
2022/05/06 02:39:02;;;;;;;;;;;10.10;1.00;;;;;;5078588;28;19920;-75
2022/05/06 02:41:28;;;;;;;;;;;9.90;1.00;;;;;;5083487;28;19959;-84
2022/05/06 02:43:53;;;;;;;;;;;10.00;1.00;;;;;;5078221;28;20437;-84
2022/05/06 02:46:19;;;;;;;;;;;10.00;1.00;;;;;;5087435;28;19912;-84
2022/05/06 02:48:45;;;;;;;;;;;10.00;1.00;;;;;;5075362;28;19908;-85
2022/05/06 02:51:11;;;;;;;;;;;9.90;1.00;;;;;;5074698;28;19909;-84
2022/05/06 02:53:36;;;;;;;;;;;10.10;1.00;;;;;;5067267;28;19912;-84
2022/05/06 02:56:02;;;;;;;;;;;10.00;1.00;;;;;;5089821;28;20302;-84
2022/05/06 02:58:28;;;;;;;;;;;9.90;1.00;;;;;;5074806;28;19917;-84
2022/05/06 03:00:53;;;;;;;;;;;10.00;1.00;;;;;;5093896;28;20008;-84
2022/05/06 03:03:18;;;;;;;;;;;9.90;1.00;;;;;;5073032;28;20393;-84
2022/05/06 03:05:44;;;;;;;;;;;9.90;1.00;;;;;;5085625;28;19919;-84
2022/05/06 03:08:10;;;;;;;;;;;9.90;1.00;;;;;;5074158;28;20374;-83
2022/05/06 03:10:36;;;;;;;;;;;10.00;1.00;;;;;;5058796;28;20263;-74
2022/05/06 03:13:01;;;;;;;;;;;9.90;1.00;;;;;;5063008;28;20010;-74
2022/05/06 03:15:27;;;;;;;;;;;9.90;1.00;;;;;;5087431;28;19943;-74
2022/05/06 03:17:52;;;;;;;;;;;9.80;1.00;;;;;;5073495;28;20016;-74
2022/05/06 03:20:18;;;;;;;;;;;9.80;1.00;;;;;;5069420;28;19909;-74
2022/05/06 03:22:49;;;;;;;;;;;9.80;1.00;;;;;;5085699;28;19920;-74
2022/05/06 03:25:15;;;;;;;;;;;9.70;1.00;;;;;;5087720;28;19920;-83
2022/05/06 03:30:28;;;;;;;;;;;9.80;1.00;;;;;;5074467;28;20282;-83
2022/05/06 03:32:56;;;;;;;;;;;9.90;1.00;;;;;;5082812;28;19916;-84
2022/05/06 03:35:22;;;;;;;;;;;9.70;1.00;;;;;;5075885;28;19908;-83
2022/05/06 03:37:48;;;;;;;;;;;9.80;1.00;;;;;;5063786;28;19924;-83
2022/05/06 03:40:14;;;;;;;;;;;9.70;1.00;;;;;;5065983;28;19973;-83
2022/05/06 03:42:40;;;;;;;;;;;9.90;1.00;;;;;;5072267;28;19920;-83
2022/05/06 03:45:07;;;;;;;;;;;9.80;1.00;;;;;;5073432;28;19909;-80
2022/05/06 03:47:34;;;;;;;;;;;9.70;1.00;;;;;;5072314;28;19920;-83
2022/05/06 03:52:44;;;;;;;;;;;9.80;1.00;;;;;;5073782;28;19920;-76
2022/05/06 03:55:09;;;;;;;;;;;9.80;1.00;;;;;;5078204;28;20279;-76
2022/05/06 03:57:35;;;;;;;;;;;9.80;1.00;;;;;;5075995;28;19959;-76
2022/05/06 04:00:00;;;;;;;;;;;9.80;1.00;;;;;;5075147;28;20358;-76
2022/05/06 04:02:26;;;;;;;;;;;9.80;1.00;;;;;;5093274;28;19908;-76
2022/05/06 04:04:51;;;;;;;;;;;9.80;1.00;;;;;;5076973;28;19913;-78
2022/05/06 04:07:17;;;;;;;;;;;9.80;1.00;;;;;;5071997;28;20012;-76
2022/05/06 04:09:42;;;;;;;;;;;9.80;1.00;;;;;;5068195;28;20002;-76
2022/05/06 04:12:09;;;;;;;;;;;9.90;1.00;;;;;;5080966;28;20282;-76
2022/05/06 04:14:35;;;;;;;;;;;9.80;1.00;;;;;;5080555;28;19919;-77
2022/05/06 04:17:02;;;;;;;;;;;9.80;1.00;;;;;;5072839;28;19917;-76
2022/05/06 04:19:28;;;;;;;;;;;9.90;1.00;;;;;;5078019;28;19918;-76
2022/05/06 04:24:38;;;;;;;;;;;10.00;1.00;;;;;;5064423;28;19919;-76
2022/05/06 04:27:04;;;;;;;;;;;9.90;1.00;;;;;;5075203;28;20041;-69
2022/05/06 04:29:29;;;;;;;;;;;9.90;1.00;;;;;;5074731;28;20128;-69
2022/05/06 04:31:55;;;;;;;;;;;9.90;1.00;;;;;;5072904;28;19989;-69
2022/05/06 04:34:20;;;;;;;;;;;10.00;1.00;;;;;;5081236;28;19912;-69
2022/05/06 04:36:46;;;;;;;;;;;10.00;1.00;;;;;;5089290;28;19970;-69
2022/05/06 04:39:11;;;;;;;;;;;10.00;1.00;;;;;;5072280;28;20428;-69
2022/05/06 04:41:37;;;;;;;;;;;10.00;1.00;;;;;;5070598;28;19913;-76
2022/05/06 04:44:02;;;;;;;;;;;10.10;1.00;;;;;;5072408;28;19912;-76
2022/05/06 04:46:28;;;;;;;;;;;10.10;1.00;;;;;;5078798;28;19916;-76
2022/05/06 04:48:53;;;;;;;;;;;10.20;1.00;;;;;;5079365;28;19924;-76
2022/05/06 04:51:19;;;;;;;;;;;10.20;1.00;;;;;;5078582;28;20418;-76
2022/05/06 04:53:45;;;;;;;;;;;10.20;1.00;;;;;;5071316;28;19966;-75
2022/05/06 04:56:11;;;;;;;;;;;10.30;1.00;;;;;;5072229;28;19920;-76
2022/05/06 04:58:37;;;;;;;;;;;10.40;1.00;;;;;;5072266;28;19912;-76
2022/05/06 05:01:04;;;;;;;;;;;10.40;1.00;;;;;;5061751;28;19964;-76
2022/05/06 05:03:29;;;;;;;;;;;10.40;1.00;;;;;;5081908;28;19908;-81
2022/05/06 05:05:55;;;;;;;;;;;10.50;1.00;;;;;;5082859;28;19961;-82
2022/05/06 05:08:20;;;;;;;;;;;10.60;1.00;;;;;;5072701;28;19999;-82
2022/05/06 05:10:46;;;;;;;;;;;10.60;1.00;;;;;;5072043;28;19912;-75
2022/05/06 05:13:11;;;;;;;;;;;10.90;1.00;;;;;;5089111;28;19916;-69
2022/05/06 05:15:36;;;;;;;;;;;10.70;1.00;;;;;;5094309;28;19916;-69
2022/05/06 05:18:02;;;;;;;;;;;10.80;1.00;;;;;;5085704;28;19967;-69
2022/05/06 05:20:27;;;;;;;;;;;10.90;1.00;;;;;;5063405;28;19938;-69
2022/05/06 05:22:53;;;;;;;;;;;10.90;1.00;;;;;;5072712;28;19967;-69
2022/05/06 05:25:19;;;;;;;;;;;11.00;1.00;;;;;;5075485;28;19913;-70
2022/05/06 05:27:44;;;;;;;;;;;11.10;1.00;;;;;;5075668;28;19919;-74
2022/05/06 05:30:10;;;;;;;;;;;11.20;1.00;;;;;;5075365;28;19916;-77
2022/05/06 05:32:37;;;;;;;;;;;11.20;1.00;;;;;;5075959;28;20359;-80
2022/05/06 05:35:03;;;;;;;;;;;11.30;99.90;;;;;;5066551;28;19912;-73
2022/05/06 05:37:28;;;;;;;;;;;11.40;99.90;;;;;;5068600;28;19916;-73
2022/05/06 05:39:54;;;;;;;;;;;11.50;99.90;;;;;;5074516;28;19924;-73
2022/05/06 05:42:22;;;;;;;;;;;11.50;99.90;;;;;;5072645;28;19920;-74
2022/05/06 05:50:19;;;;;;;;;;;11.80;99.90;;;;;;5069491;28;19974;-74
2022/05/06 05:52:45;;;;;;;;;;;11.90;99.90;;;;;;5076354;28;19916;-74
2022/05/06 05:55:14;;;;;;;;;;;12.00;99.90;;;;;;5085948;28;20339;-74
2022/05/06 05:57:40;;;;;;;;;;;12.10;99.90;;;;;;5080611;28;19917;-74
2022/05/06 06:00:06;;;;;;;;;;;12.20;99.90;;;;;;5074717;28;19919;-74
2022/05/06 06:02:31;;;;;;;;;;;12.30;99.90;;;;;;5083366;28;19908;-74
2022/05/06 06:04:57;;;;;;;;;;;12.30;99.90;;;;;;5075072;28;19917;-73
2022/05/06 06:07:23;;;;;;;;;;;12.50;99.90;;;;;;5089058;28;20039;-74
2022/05/06 06:09:48;;;;;;;;;;;12.60;99.90;;;;;;5075135;28;19908;-74
2022/05/06 06:12:13;;;;;;;;;;;12.60;99.90;;;;;;5085402;28;20366;-74
2022/05/06 06:14:39;;;;;;;;;;;12.80;99.90;;;;;;5074679;28;19919;-74
2022/05/06 06:17:04;;;;;;;;;;;12.90;99.90;;;;;;5075070;28;20351;-74
2022/05/06 06:19:30;;;;;;;;;;;12.90;99.90;;;;;;5075064;28;19909;-73
2022/05/06 06:21:55;;;;;;;;;;;13.10;99.90;;;;;;5077128;28;19919;-74
2022/05/06 06:24:21;;;;;;;;;;;13.20;99.90;;;;;;5083288;28;20001;-73
2022/05/06 06:26:46;;;;;;;;;;;13.30;99.90;;;;;;5088296;28;19919;-81
2022/05/06 06:29:12;;;;;;;;;;;13.50;99.90;;;;;;5082846;28;19913;-81
2022/05/06 06:31:38;;;;;;;;;;;13.50;99.90;;;;;;5075524;28;19912;-82
2022/05/06 06:34:04;;;;;;;;;;;13.60;99.90;;;;;;5074598;28;20480;-82
2022/05/06 06:36:29;;;;;;;;;;;13.70;99.90;;;;;;5087789;28;19919;-82
2022/05/06 06:38:55;;;;;;;;;;;13.70;99.90;;;;;;5070279;28;19921;-82
2022/05/06 06:41:21;;;;;;;;;;;13.90;99.90;;;;;;5076938;28;19967;-82
2022/05/06 06:43:47;;;;;;;;;;;14.00;99.90;;;;;;5066870;28;20041;-74
2022/05/06 06:46:13;;;;;;;;;;;14.10;99.90;;;;;;5078608;28;20041;-74
2022/05/06 06:48:39;;;;;;;;;;;14.20;99.90;;;;;;5056797;28;20385;-74
2022/05/06 06:51:05;;;;;;;;;;;14.30;99.90;;;;;;5073894;28;20393;-74
2022/05/06 06:53:30;;;;;;;;;;;14.40;99.90;;;;;;5073043;28;19909;-74
2022/05/06 06:55:56;;;;;;;;;;;14.50;99.90;;;;;;5070311;28;20053;-74
2022/05/06 06:58:22;;;;;;;;;;;14.60;99.90;;;;;;5074681;28;19959;-82
2022/05/06 07:00:48;;;;;;;;;;;14.70;99.90;;;;;;5072320;28;20444;-81
2022/05/06 07:03:14;;;;;;;;;;;14.80;99.90;;;;;;5083111;28;19958;-83
2022/05/06 07:13:55;;;;;;;;;;;15.40;99.90;;;;;;5071392;28;19958;-74
2022/05/06 07:16:22;;;;;;;;;;;15.50;99.90;;;;;;5074504;28;19951;-74
2022/05/06 07:18:49;;;;;;;;;;;15.60;99.90;;;;;;5069406;28;20011;-74
2022/05/06 07:21:14;;;;;;;;;;;15.70;99.90;;;;;;5075032;28;19970;-74
2022/05/06 07:23:40;;;;;;;;;;;15.70;99.90;;;;;;5072512;28;19916;-74
2022/05/06 07:26:05;;;;;;;;;;;15.90;99.90;;;;;;5072085;28;19942;-74
2022/05/06 07:28:31;;;;;;;;;;;15.90;99.90;;;;;;5080253;28;19908;-74
2022/05/06 07:30:56;;;;;;;;;;;16.00;99.90;;;;;;5083088;28;20028;-74
2022/05/06 07:33:22;;;;;;;;;;;16.20;99.90;;;;;;5076100;28;19919;-74
2022/05/06 07:35:47;;;;;;;;;;;16.30;99.90;;;;;;5084872;28;20374;-74
2022/05/06 07:38:13;;;;;;;;;;;16.40;99.90;;;;;;5069571;28;19928;-74
2022/05/06 07:40:38;;;;;;;;;;;16.50;99.90;;;;;;5072675;28;20386;-74
2022/05/06 07:43:04;;;;;;;;;;;16.60;99.90;;;;;;5057619;28;19965;-75
2022/05/06 07:45:29;;;;;;;;;;;16.70;99.90;;;;;;5071325;28;19948;-74
2022/05/06 07:48:06;;;;;;;;;;;16.80;99.90;;;;;;5071990;28;20102;-75
2022/05/06 07:50:37;;;;;;;;;;;16.90;99.90;;;;;;5074779;28;19913;-74
2022/05/06 07:53:03;;;;;;;;;;;17.00;99.90;;;;;;5079260;28;19908;-75
2022/05/06 07:55:29;;;;;;;;;;;17.20;99.90;;;;;;5082795;28;19912;-74
2022/05/06 07:57:57;;;;;;;;;;;17.30;99.90;;;;;;5068950;28;20263;-83
2022/05/06 08:06:19;;;;;;;;;;;17.60;99.90;;;;;;5087991;28;19916;-82
2022/05/06 08:08:55;;;;;;;;;;;17.70;99.90;;;;;;5074074;28;19913;-83
2022/05/06 08:11:49;;;;;;;;;;;17.90;99.90;;;;;;5066931;28;19991;-83
2022/05/06 08:14:16;;;;;;;;;;;18.00;99.90;;;;;;5055708;28;20244;-75
2022/05/06 08:16:42;;;;;;;;;;;18.10;99.90;;;;;;5072404;28;19938;-74
2022/05/06 08:19:13;;;;;;;;;;;18.30;99.90;;;;;;5060041;28;19944;-74
2022/05/06 08:21:43;;;;;;;;;;;18.40;99.90;;;;;;5063628;28;19967;-75
2022/05/06 08:24:13;;;;;;;;;;;18.50;99.90;;;;;;5068386;28;20344;-75
2022/05/06 08:26:38;;;;;;;;;;;18.60;99.90;;;;;;5079587;28;19916;-74
2022/05/06 08:29:07;;;;;;;;;;;18.70;99.90;;;;;;5074099;28;19916;-75
2022/05/06 08:31:37;;;;;;;;;;;18.70;99.90;;;;;;5072117;28;19948;-74
2022/05/06 08:34:12;;;;;;;;;;;18.80;99.90;;;;;;5094191;28;19908;-75
2022/05/06 08:36:39;;;;;;;;;;;18.80;99.90;;;;;;5077674;28;19927;-75
2022/05/06 08:39:06;;;;;;;;;;;18.90;99.90;;;;;;5073823;28;19920;-75
2022/05/06 08:41:32;;;;;;;;;;;19.00;99.90;;;;;;5067768;28;19929;-75
2022/05/06 08:52:21;;;;;;;;;;;19.40;99.90;;;;;;5087961;28;20393;-75
2022/05/06 08:54:48;;;;;;;;;;;19.40;99.90;;;;;;5077909;28;20278;-75
2022/05/06 08:57:14;;;;;;;;;;;19.50;99.90;;;;;;5077410;28;20297;-78
2022/05/06 08:59:39;;;;;;;;;;;19.50;99.90;;;;;;5077964;28;19995;-70
2022/05/06 09:02:06;;;;;;;;;;;19.60;99.90;;;;;;5076488;28;20291;-70
2022/05/06 09:04:40;;;;;;;;;;;19.70;99.90;;;;;;5084409;28;19912;-70
2022/05/06 09:07:13;;;;;;;;;;;19.70;99.90;;;;;;5078226;28;19913;-70
2022/05/06 09:09:38;;;;;;;;;;;19.70;99.90;;;;;;5086036;28;19912;-70
2022/05/06 09:17:45;;;;;;;;;;;20.00;99.90;;;;;;5065377;28;20382;-70
2022/05/06 09:20:17;;;;;;;;;;;20.10;99.90;;;;;;5079841;28;19948;-70
2022/05/06 09:22:43;;;;;;;;;;;20.20;99.90;;;;;;5079143;28;20294;-70
2022/05/06 09:25:08;;;;;;;;;;;20.30;99.90;;;;;;5065219;28;19908;-70
2022/05/06 09:27:34;;;;;;;;;;;20.40;99.90;;;;;;5074436;28;19995;-76
2022/05/06 09:30:07;;;;;;;;;;;20.40;99.90;;;;;;5091091;28;20317;-84
2022/05/06 09:32:32;;;;;;;;;;;20.60;99.90;;;;;;5087673;28;19908;-82
2022/05/06 09:35:13;;;;;;;;;;;20.60;99.90;;;;;;5078951;28;20383;-82
2022/05/06 09:37:43;;;;;;;;;;;20.50;99.90;;;;;;5076698;28;19970;-82
2022/05/06 09:40:20;;;;;;;;;;;20.60;99.90;;;;;;5083162;28;20012;-82
2022/05/06 09:43:06;;;;;;;;;;;20.60;99.90;;;;;;5083298;28;20363;-82
2022/05/06 09:45:49;;;;;;;;;;;20.60;99.90;;;;;;5096687;28;19915;-82
2022/05/06 09:48:15;;;;;;;;;;;20.70;99.90;;;;;;5076992;28;19912;-82
2022/05/06 09:50:49;;;;;;;;;;;20.80;99.90;;;;;;5076359;28;20350;-81
2022/05/06 09:53:25;;;;;;;;;;;20.80;99.90;;;;;;5096906;28;20005;-81
2022/05/06 09:55:55;;;;;;;;;;;20.90;99.90;;;;;;5096811;28;19908;-81
2022/05/06 09:58:25;;;;;;;;;;;20.90;99.90;;;;;;5096272;28;19912;-81
2022/05/06 10:00:50;;;;;;;;;;;21.10;99.90;;;;;;5071799;28;19913;-81
2022/05/06 10:03:19;;;;;;;;;;;21.20;99.90;;;;;;5087441;28;19923;-81
2022/05/06 10:05:55;;;;;;;;;;;21.40;99.90;;;;;;5076373;28;19912;-82
2022/05/06 10:08:43;;;;;;;;;;;21.50;99.90;;;;;;5076406;28;19916;-82
2022/05/06 10:11:14;;;;;;;;;;;21.60;99.90;;;;;;5076111;28;19908;-81
2022/05/06 10:13:44;;;;;;;;;;;21.60;99.90;;;;;;5081897;28;19921;-81
2022/05/06 10:16:10;;;;;;;;;;;21.50;99.90;;;;;;5092245;28;19908;-75
2022/05/06 10:18:38;;;;;;;;;;;21.50;99.90;;;;;;5092941;28;19978;-76
2022/05/06 10:21:14;;;;;;;;;;;21.60;99.90;;;;;;5075807;28;19913;-76
2022/05/06 10:23:55;;;;;;;;;;;21.50;99.90;;;;;;5079788;28;19913;-76
2022/05/06 10:26:40;;;;;;;;;;;21.40;99.90;;;;;;5084976;28;19915;-76
2022/05/06 10:32:37;;;;;;;;;;;21.50;99.90;;;;;;4970162;28;19929;-76
2022/05/06 10:35:09;;;;;;;;;;;21.60;99.90;;;;;;4977530;28;19917;-76
2022/05/06 10:37:38;;;;;;;;;;;21.60;99.90;;;;;;4976769;28;19929;-76
2022/05/06 10:40:22;;;;;;;;;;;21.60;99.90;;;;;;4991096;28;19932;-76
2022/05/06 10:43:04;;;;;;;;;;;21.70;99.90;;;;;;4981213;28;19914;-76
2022/05/06 10:45:32;;;;;;;;;;;21.70;99.90;;;;;;4974292;28;19965;-76
2022/05/06 10:48:01;;;;;;;;;;;21.80;99.90;;;;;;4986803;28;19910;-76
2022/05/06 10:50:49;;;;;;;;;;;21.80;99.90;;;;;;4976757;28;19965;-75
2022/05/06 10:53:34;;;;;;;;;;;21.80;99.90;;;;;;4964974;28;19914;-76
2022/05/06 10:56:01;;;;;;;;;;;21.80;99.90;;;;;;4979610;28;19927;-75
2022/05/06 10:58:43;;;;;;;;;;;21.90;99.90;;;;;;4977564;28;19925;-76
2022/05/06 11:01:25;;;;;;;;;;;22.00;99.90;;;;;;4974228;28;19924;-82
2022/05/06 11:04:13;;;;;;;;;;;21.80;99.90;;;;;;4974157;28;19918;-81
2022/05/06 11:06:43;;;;;;;;;;;21.90;99.90;;;;;;4974993;28;19993;-85
2022/05/06 11:09:28;;;;;;;;;;;22.10;99.90;;;;;;5042457;28;19956;-82
2022/05/06 11:15:08;;;;;;;;;;;22.30;99.90;;;;;;5055002;28;19919;-82
2022/05/06 11:17:37;;;;;;;;;;;22.40;99.90;;;;;;5070559;28;19913;-82
2022/05/06 11:20:27;;;;;;;;;;;22.50;99.90;;;;;;5065347;28;19915;-83
2022/05/06 11:23:02;;;;;;;;;;;22.60;99.90;;;;;;4993072;28;20380;-82
2022/05/06 11:28:32;;;;;;;;;;;22.80;99.90;;;;;;5008848;28;19963;-82
2022/05/06 11:31:14;;;;;;;;;;;22.70;99.90;;;;;;5004186;28;20008;-82
2022/05/06 11:33:43;;;;;;;;;;;22.70;99.90;;;;;;5003241;28;19921;-82
2022/05/06 11:39:14;;;;;;;;;;;22.80;99.90;;;;;;4992838;28;19944;-82
2022/05/06 11:41:43;;;;;;;;;;;22.90;99.90;;;;;;4999378;28;20004;-83
2022/05/06 11:44:10;;;;;;;;;;;23.00;99.90;;;;;;4993314;28;19910;-82
2022/05/06 11:49:25;;;;;;;;;;;22.80;99.90;;;;;;4994589;28;19964;-77
2022/05/06 11:52:07;;;;;;;;;;;23.10;99.90;;;;;;5004682;28;20365;-76
2022/05/06 11:54:33;;;;;;;;;;;23.20;99.90;;;;;;5006352;28;19910;-77
2022/05/06 11:57:09;;;;;;;;;;;23.60;99.90;;;;;;4992497;28;19997;-77
2022/05/06 11:59:49;;;;;;;;;;;23.90;99.90;;;;;;5023598;28;19919;-76
2022/05/06 12:02:31;;;;;;;;;;;24.20;99.90;;;;;;5082526;28;19965;-83
2022/05/06 12:05:01;;;;;;;;;;;24.50;99.90;;;;;;5084771;28;19916;-82
2022/05/06 12:07:45;;;;;;;;;;;24.60;99.90;;;;;;5080680;28;19960;-77
2022/05/06 12:10:37;;;;;;;;;;;24.80;99.90;;;;;;5061681;28;19999;-79
2022/05/06 12:13:29;;;;;;;;;;;24.80;99.90;;;;;;5072786;28;19912;-82
2022/05/06 12:16:31;;;;;;;;;;;24.80;99.90;;;;;;5087500;28;19918;-78
2022/05/06 12:19:01;;;;;;;;;;;24.50;99.90;;;;;;5089158;28;19920;-82
2022/05/06 12:21:32;;;;;;;;;;;24.20;99.90;;;;;;5083451;28;19908;-81
2022/05/06 12:23:59;;;;;;;;;;;23.80;99.90;;;;;;5079354;28;20342;-81
2022/05/06 12:29:35;;;;;;;;;;;23.70;99.90;;;;;;5076210;28;20280;-82
2022/05/06 12:32:07;;;;;;;;;;;23.70;99.90;;;;;;5075401;28;20256;-76
2022/05/06 12:34:33;;;;;;;;;;;23.90;99.90;;;;;;5073762;28;20017;-77
2022/05/06 12:37:14;;;;;;;;;;;24.10;99.90;;;;;;5079790;28;20367;-77
2022/05/06 12:39:49;;;;;;;;;;;24.10;99.90;;;;;;5088912;28;19954;-77
2022/05/06 12:42:25;;;;;;;;;;;24.10;99.90;;;;;;5076754;28;19916;-76
2022/05/06 12:45:02;;;;;;;;;;;24.20;99.90;;;;;;5072821;28;19909;-77
2022/05/06 12:50:19;;;;;;;;;;;24.30;99.90;;;;;;5081861;28;19923;-81
2022/05/06 12:52:55;;;;;;;;;;;24.30;99.90;;;;;;5080177;28;19958;-81
2022/05/06 12:55:31;;;;;;;;;;;24.30;99.90;;;;;;5077876;28;19920;-82
2022/05/06 12:58:01;;;;;;;;;;;24.20;99.90;;;;;;5083571;28;19920;-81
2022/05/06 13:00:39;;;;;;;;;;;24.10;99.90;;;;;;5075814;28;19950;-82
2022/05/06 13:03:13;;;;;;;;;;;24.20;99.90;;;;;;5081733;28;19920;-81
2022/05/06 13:06:07;;;;;;;;;;;24.30;99.90;;;;;;5049480;28;19994;-82
2022/05/06 13:08:37;;;;;;;;;;;24.30;99.90;;;;;;5068842;28;19912;-81
2022/05/06 13:11:07;;;;;;;;;;;24.50;99.90;;;;;;5077163;28;19912;-82
2022/05/06 13:13:37;;;;;;;;;;;24.60;99.90;;;;;;5090977;28;19914;-82
2022/05/06 13:16:03;;;;;;;;;;;24.60;99.90;;;;;;5080898;28;19954;-82
2022/05/06 13:18:31;;;;;;;;;;;24.70;99.90;;;;;;5076937;28;19912;-77
2022/05/06 13:20:56;;;;;;;;;;;24.70;99.90;;;;;;5075987;28;19912;-77
2022/05/06 13:23:22;;;;;;;;;;;24.80;99.90;;;;;;5087620;28;19908;-77
2022/05/06 13:25:48;;;;;;;;;;;24.80;99.90;;;;;;5073712;28;20259;-77
2022/05/06 13:28:25;;;;;;;;;;;24.80;99.90;;;;;;5073365;28;19912;-77
2022/05/06 13:30:55;;;;;;;;;;;24.80;99.90;;;;;;5073545;28;19935;-77
2022/05/06 13:33:25;;;;;;;;;;;24.90;99.90;;;;;;5073643;28;19916;-77
2022/05/06 13:36:01;;;;;;;;;;;25.00;99.90;;;;;;5055152;28;20370;-77
2022/05/06 13:38:37;;;;;;;;;;;25.10;99.90;;;;;;5087831;28;19920;-77
2022/05/06 13:41:02;;;;;;;;;;;25.20;99.90;;;;;;5066895;28;19924;-77
2022/05/06 13:43:37;;;;;;;;;;;25.20;99.90;;;;;;5080916;28;20312;-77
2022/05/06 13:46:19;;;;;;;;;;;25.10;99.90;;;;;;5074896;28;19952;-78
2022/05/06 13:48:49;;;;;;;;;;;25.40;99.90;;;;;;5073480;28;19912;-77
2022/05/06 13:51:15;;;;;;;;;;;25.60;99.90;;;;;;5059079;28;19916;-77
2022/05/06 13:53:43;;;;;;;;;;;25.60;99.90;;;;;;5074571;28;19919;-77
2022/05/06 13:59:05;;;;;;;;;;;25.40;99.90;;;;;;5061557;28;19939;-77
2022/05/06 14:01:31;;;;;;;;;;;25.20;99.90;;;;;;5076481;28;19908;-77
2022/05/06 14:04:01;;;;;;;;;;;25.10;99.90;;;;;;5078801;28;19995;-80
2022/05/06 14:06:31;;;;;;;;;;;25.10;99.90;;;;;;5086857;28;20015;-79
2022/05/06 14:09:07;;;;;;;;;;;25.10;99.90;;;;;;5079037;28;20020;-79
2022/05/06 14:11:32;;;;;;;;;;;25.10;99.90;;;;;;5068073;28;19908;-79
2022/05/06 14:13:58;;;;;;;;;;;25.00;99.90;;;;;;5095759;28;19956;-79
2022/05/06 14:16:25;;;;;;;;;;;25.00;99.90;;;;;;5078232;28;19908;-79
2022/05/06 14:18:56;;;;;;;;;;;25.10;99.90;;;;;;5092497;28;19920;-80
2022/05/06 14:21:25;;;;;;;;;;;25.10;99.90;;;;;;5087209;28;20117;-80
2022/05/06 14:24:13;;;;;;;;;;;25.10;99.90;;;;;;5082717;28;19959;-80
2022/05/06 14:26:39;;;;;;;;;;;25.20;99.90;;;;;;5081431;28;19917;-80
2022/05/06 14:29:31;;;;;;;;;;;25.40;99.90;;;;;;5077990;28;20441;-80
2022/05/06 14:32:13;;;;;;;;;;;25.60;99.90;;;;;;5070671;28;19958;-80
2022/05/06 14:34:38;;;;;;;;;;;25.50;99.90;;;;;;5075938;28;19955;-80
2022/05/06 14:37:06;;;;;;;;;;;25.70;99.90;;;;;;5089067;28;19916;-80
2022/05/06 14:39:31;;;;;;;;;;;26.00;99.90;;;;;;5087041;28;19942;-80
2022/05/06 14:42:01;;;;;;;;;;;26.20;99.90;;;;;;5057532;28;19909;-80
2022/05/06 14:44:43;;;;;;;;;;;26.30;99.90;;;;;;5075986;28;19959;-80
2022/05/06 14:47:09;;;;;;;;;;;25.80;99.90;;;;;;5095434;28;19995;-77
2022/05/06 14:49:37;;;;;;;;;;;25.40;99.90;;;;;;5077088;28;19982;-76
2022/05/06 14:52:05;;;;;;;;;;;25.40;99.90;;;;;;5075113;28;19913;-76
2022/05/06 14:54:31;;;;;;;;;;;25.40;99.90;;;;;;5073296;28;19996;-76
2022/05/06 14:56:58;;;;;;;;;;;25.50;99.90;;;;;;5076704;28;20010;-76
2022/05/06 14:59:23;;;;;;;;;;;25.60;99.90;;;;;;5084614;28;20425;-76
2022/05/06 15:01:55;;;;;;;;;;;25.70;99.90;;;;;;5076007;28;20004;-76
2022/05/06 15:04:49;;;;;;;;;;;25.60;99.90;;;;;;5089090;28;19921;-76
2022/05/06 15:07:14;;;;;;;;;;;25.40;99.90;;;;;;5075802;28;19916;-73
2022/05/06 15:09:43;;;;;;;;;;;25.30;99.90;;;;;;5074265;28;19920;-73
2022/05/06 15:12:09;;;;;;;;;;;25.30;99.90;;;;;;5064730;28;19958;-72
2022/05/06 15:14:35;;;;;;;;;;;25.80;99.90;;;;;;5080186;28;19923;-72
2022/05/06 15:17:05;;;;;;;;;;;26.00;99.90;;;;;;5067957;28;19937;-75
2022/05/06 15:19:37;;;;;;;;;;;26.00;99.90;;;;;;5075161;28;19913;-82
2022/05/06 15:22:06;;;;;;;;;;;26.80;99.90;;;;;;5060700;28;19918;-83
2022/05/06 15:24:44;;;;;;;;;;;28.60;99.90;;;;;;5084112;28;19915;-85
2022/05/06 15:27:21;;;;;;;;;;;30.50;99.90;;;;;;5081416;28;20008;-83
2022/05/06 15:29:49;;;;;;;;;;;30.50;99.90;;;;;;5082935;28;19913;-83
2022/05/06 15:32:14;;;;;;;;;;;31.40;99.90;;;;;;5063556;28;19923;-77
2022/05/06 15:34:40;;;;;;;;;;;33.00;99.90;;;;;;5065715;28;19908;-78
2022/05/06 15:37:07;;;;;;;;;;;34.60;99.90;;;;;;5079311;28;19935;-78
2022/05/06 15:39:33;;;;;;;;;;;35.50;99.90;;;;;;5072213;28;20436;-78
2022/05/06 15:42:07;;;;;;;;;;;36.70;99.90;;;;;;5070184;28;19908;-84
2022/05/06 15:44:33;;;;;;;;;;;38.10;99.90;;;;;;5087307;28;20407;-82
2022/05/06 15:47:02;;;;;;;;;;;39.50;99.90;;;;;;5088495;28;20010;-82
2022/05/06 15:49:31;;;;;;;;;;;40.50;99.90;;;;;;5075108;28;19916;-79